Time;durP1;ratioP1;P1;durP2;ratioP2;P2;SDS_P1;SDS_P2;PMS_P1;PMS_P2;Temp;Humidity;BMP_temperature;BMP_pressure;BME280_temperature;BME280_humidity;BME280_pressure;Samples;Min_cycle;Max_cycle;Signal;HPM_P1;HPM_P2
2022/02/06 00:51:28;;;;;;;16.00;11.93;;;;;;;;;;778622;73;26333;-90
2022/02/06 00:52:33;;;;;;;14.20;11.50;;;;;;;;;;790784;73;26764;-91
2022/02/06 00:53:30;;;;;;;15.65;12.15;;;;;;;;;;787928;73;26298;-90
2022/02/06 00:54:32;;;;;;;17.20;12.90;;;;;;;;;;790856;73;26741;-91
2022/02/06 00:55:35;;;;;;;15.68;12.75;;;;;;;;;;791665;73;26382;-90
2022/02/06 00:56:41;;;;;;;16.40;12.73;;;;;;;;;;788780;73;26324;-91
2022/02/06 00:57:42;;;;;;;15.68;12.15;;;;;;;;;;792998;73;27152;-90
2022/02/06 00:58:45;;;;;;;17.27;13.30;;;;;;;;;;793329;73;26740;-89
2022/02/06 00:59:48;;;;;;;14.68;12.50;;;;;;;;;;786744;74;26409;-90
2022/02/06 01:00:51;;;;;;;17.87;12.88;;;;;;;;;;787460;74;26254;-91
2022/02/06 01:01:54;;;;;;;14.80;11.93;;;;;;;;;;788171;73;26322;-91
2022/02/06 01:02:56;;;;;;;16.17;12.60;;;;;;;;;;787953;74;26341;-90
2022/02/06 01:04:01;;;;;;;15.68;12.88;;;;;;;;;;781357;74;26771;-92
2022/02/06 01:05:03;;;;;;;16.40;12.82;;;;;;;;;;789864;74;26324;-92
2022/02/06 01:06:06;;;;;;;15.15;12.60;;;;;;;;;;787999;74;26285;-88
2022/02/06 01:07:09;;;;;;;15.75;12.25;;;;;;;;;;785525;74;26310;-91
2022/02/06 01:08:13;;;;;;;15.68;12.18;;;;;;;;;;786165;74;26345;-90
2022/02/06 01:09:17;;;;;;;14.75;12.45;;;;;;;;;;788814;74;26316;-90
2022/02/06 01:10:19;;;;;;;17.35;12.90;;;;;;;;;;788236;73;27087;-91
2022/02/06 01:11:22;;;;;;;16.48;12.73;;;;;;;;;;790519;74;26761;-91
2022/02/06 01:12:29;;;;;;;15.43;12.23;;;;;;;;;;791782;73;26325;-91
2022/02/06 01:13:46;;;;;;;16.05;12.40;;;;;;;;;;797302;73;26783;-89
2022/02/06 01:14:53;;;;;;;15.90;12.20;;;;;;;;;;794125;73;26376;-90
2022/02/06 01:18:17;;;;;;;17.85;13.72;;;;;;;;;;796973;73;26390;-91
2022/02/06 01:19:13;;;;;;;20.75;13.10;;;;;;;;;;790432;73;26341;-92
2022/02/06 01:21:01;;;;;;;15.63;11.93;;;;;;;;;;792690;73;26289;-91
2022/02/06 01:22:25;;;;;;;17.48;13.18;;;;;;;;;;790857;73;26375;-92
2022/02/06 01:23:45;;;;;;;20.72;12.33;;;;;;;;;;796579;73;26322;-90
2022/02/06 01:24:56;;;;;;;15.48;11.73;;;;;;;;;;794646;72;26267;-90
2022/02/06 01:27:15;;;;;;;15.23;12.33;;;;;;;;;;812054;72;26213;-91
2022/02/06 01:28:12;;;;;;;17.15;12.47;;;;;;;;;;790227;73;26227;-92
2022/02/06 01:30:32;;;;;;;16.15;12.73;;;;;;;;;;788826;74;26372;-91
2022/02/06 01:32:55;;;;;;;18.15;12.37;;;;;;;;;;807038;73;26278;-93
2022/02/06 01:33:58;;;;;;;15.88;11.80;;;;;;;;;;787940;74;26298;-92
2022/02/06 01:35:06;;;;;;;15.30;11.90;;;;;;;;;;786372;75;26333;-91
2022/02/06 01:36:25;;;;;;;15.03;11.22;;;;;;;;;;782635;75;26373;-90
2022/02/06 01:37:29;;;;;;;16.97;12.88;;;;;;;;;;782930;75;26598;-90
2022/02/06 01:38:34;;;;;;;15.78;12.10;;;;;;;;;;779076;76;26264;-88
2022/02/06 03:02:28;;;;;;;13.50;9.90;;;;;;;7.30;55.30;94956.59;759316;76;26320;-89
2022/02/06 03:03:37;;;;;;;13.13;9.43;;;;;;;7.27;55.12;94955.29;760850;77;26268;-92
2022/02/06 03:05:28;;;;;;;;;;;;;;;;;;;;;
2022/02/06 03:06:38;;;;;;;11.35;8.73;;;;;;;7.20;54.98;94952.92;763024;75;26316;-91
2022/02/06 05:15:03;;;;;;;5.97;4.90;;;;;;;6.17;46.57;94973.62;764925;77;26268;-85
2022/02/06 05:23:02;;;;;;;5.37;4.25;;;;;;;6.17;46.55;94978.06;823814;72;26268;-87
2022/02/06 05:24:23;;;;;;;5.40;4.70;;;;;;;6.17;46.66;94975.45;820513;72;26259;-87
2022/02/06 05:26:31;;;;;;;5.45;4.92;;;;;;;6.18;46.41;94978.31;823664;72;26241;-87
2022/02/06 05:28:35;;;;;;;6.55;4.65;;;;;;;6.16;46.62;94984.28;823618;72;26270;-87
2022/02/06 05:31:07;;;;;;;5.58;5.05;;;;;;;6.17;46.78;94984.57;823751;72;26242;-84
2022/02/06 05:33:24;;;;;;;5.22;4.17;;;;;;;6.18;46.65;94988.73;823643;72;26308;-83
2022/02/06 05:34:27;;;;;;;6.12;4.72;;;;;;;6.18;46.72;94985.64;823925;72;26236;-82
2022/02/06 05:35:35;;;;;;;7.10;5.40;;;;;;;6.17;46.69;94985.87;824286;71;26299;-84
2022/02/06 05:36:38;;;;;;;6.03;4.85;;;;;;;6.18;46.89;94990.84;824098;72;26289;-83
2022/02/06 05:37:42;;;;;;;7.10;5.05;;;;;;;6.18;46.83;94992.15;817807;70;26191;-85
2022/02/06 05:38:46;;;;;;;7.35;5.33;;;;;;;6.16;47.00;94990.80;812126;73;26273;-83
2022/02/06 05:39:50;;;;;;;5.87;5.28;;;;;;;6.16;47.11;94996.01;810969;73;26320;-83
2022/02/06 05:40:54;;;;;;;7.37;6.08;;;;;;;6.18;47.11;95000.45;810336;73;26263;-83
2022/02/06 05:41:58;;;;;;;6.08;5.35;;;;;;;6.17;47.38;94999.68;810374;73;26328;-83
2022/02/06 05:43:03;;;;;;;7.85;6.20;;;;;;;6.18;47.56;95003.06;810269;73;26400;-82
2022/02/06 05:44:07;;;;;;;6.60;5.83;;;;;;;6.19;47.45;94995.01;810112;73;26740;-82
2022/02/06 05:45:11;;;;;;;7.60;6.50;;;;;;;6.19;47.50;94997.61;810181;73;26306;-84
2022/02/06 05:46:15;;;;;;;8.10;5.95;;;;;;;6.20;47.61;95000.50;810285;73;26662;-84
2022/02/06 05:47:19;;;;;;;7.03;5.90;;;;;;;6.21;47.58;95001.28;810255;73;26996;-84
2022/02/06 05:48:22;;;;;;;10.32;6.87;;;;;;;6.20;47.55;95001.80;810145;73;26274;-80
2022/02/06 05:49:26;;;;;;;7.30;6.10;;;;;;;6.23;47.75;94997.91;811199;72;26311;-80
2022/02/06 05:50:30;;;;;;;7.95;6.62;;;;;;;6.25;47.88;94999.75;822449;72;26220;-79
2022/02/06 05:51:34;;;;;;;7.55;6.40;;;;;;;6.28;47.90;94998.47;822634;72;26753;-79
2022/02/06 05:52:39;;;;;;;6.55;5.95;;;;;;;6.29;48.06;95002.13;822617;72;26378;-78
2022/02/06 05:53:43;;;;;;;8.43;7.40;;;;;;;6.33;47.88;95008.95;822425;72;26288;-79
2022/02/06 05:54:47;;;;;;;11.05;7.78;;;;;;;6.35;47.80;95007.66;814501;72;26237;-82
2022/02/06 05:55:51;;;;;;;7.60;6.75;;;;;;;6.38;47.73;95005.84;823189;72;26277;-77
2022/02/06 05:56:55;;;;;;;7.08;6.17;;;;;;;6.51;47.76;95009.07;813278;72;27212;-78
2022/02/06 05:57:59;;;;;;;8.33;6.65;;;;;;;6.68;47.74;95010.27;808532;73;26473;-79
2022/02/06 05:59:04;;;;;;;8.30;6.60;;;;;;;6.89;47.47;95011.17;821565;72;26812;-80
2022/02/06 06:00:14;;;;;;;7.87;6.95;;;;;;;7.11;47.13;95010.53;823259;72;26285;-79
2022/02/06 06:01:14;;;;;;;9.08;7.03;;;;;;;7.35;46.66;95010.14;822770;72;26382;-79
2022/02/06 06:02:18;;;;;;;8.53;6.55;;;;;;;7.62;46.17;95010.79;823551;72;26762;-79
2022/02/06 06:03:22;;;;;;;9.28;6.85;;;;;;;7.88;45.91;95010.08;823719;72;26642;-79
2022/02/06 06:04:26;;;;;;;9.08;7.47;;;;;;;8.12;45.57;95004.64;823588;72;26687;-79
2022/02/06 06:05:29;;;;;;;9.53;7.30;;;;;;;8.37;45.11;95005.22;823707;72;26679;-80
2022/02/06 06:06:35;;;;;;;9.58;7.37;;;;;;;8.63;44.63;95010.46;823412;72;26265;-80
2022/02/06 06:07:43;;;;;;;9.03;6.92;;;;;;;8.87;44.16;95004.70;823583;72;26257;-79
2022/02/06 06:08:46;;;;;;;10.45;7.45;;;;;;;9.12;43.65;95005.17;823491;72;26253;-81
2022/02/06 06:09:50;;;;;;;8.90;8.00;;;;;;;9.37;43.25;95010.89;823263;72;26289;-79
2022/02/06 06:10:54;;;;;;;9.98;8.15;;;;;;;9.57;42.84;95002.16;823343;72;26331;-80
2022/02/06 06:11:58;;;;;;;13.00;8.65;;;;;;;9.79;42.36;95006.53;823297;72;26295;-78
2022/02/06 06:13:02;;;;;;;10.78;8.60;;;;;;;9.98;41.91;95005.38;823407;72;26288;-80
2022/02/06 06:14:05;;;;;;;10.35;8.70;;;;;;;10.17;41.53;95004.22;823378;72;26234;-79
2022/02/06 06:15:10;;;;;;;11.15;9.38;;;;;;;10.37;41.09;95005.95;823335;72;26875;-79
2022/02/06 06:16:13;;;;;;;14.85;9.68;;;;;;;10.57;40.73;95005.56;823373;72;26266;-79
2022/02/06 06:17:18;;;;;;;10.20;8.70;;;;;;;10.75;40.34;95011.45;823400;72;26258;-77
2022/02/06 06:18:22;;;;;;;12.10;9.63;;;;;;;10.90;39.88;95007.90;823428;72;26752;-78
2022/02/06 06:19:26;;;;;;;12.55;8.93;;;;;;;11.07;39.75;95013.27;823352;71;26323;-79
2022/02/06 06:20:31;;;;;;;10.15;8.60;;;;;;;;;;823283;72;26703;-80
2022/02/06 06:21:41;;;;;;;9.35;8.35;;;;;;;;;;823208;71;26929;-79
2022/02/06 06:22:37;;;;;;;11.10;8.58;;;;;;;;;;820746;72;26270;-79
2022/02/06 06:23:43;;;;;;;15.80;10.50;;;;;;;;;;823432;72;26313;-79
2022/02/06 06:24:50;;;;;;;9.80;8.80;;;;;;;;;;823043;71;26269;-79
2022/02/06 06:25:50;;;;;;;9.60;8.58;;;;;;;;;;792536;74;26237;-78
2022/02/06 06:26:55;;;;;;;11.18;9.00;;;;;;;;;;822720;72;26385;-79
2022/02/06 06:27:57;;;;;;;10.35;9.08;;;;;;;;;;823092;72;26224;-79
2022/02/06 06:29:00;;;;;;;12.78;9.25;;;;;;;;;;823258;72;26323;-78
2022/02/06 06:30:04;;;;;;;12.65;9.40;;;;;;;;;;822950;72;26210;-80
2022/02/06 06:31:07;;;;;;;10.58;8.90;;;;;;;;;;823041;72;26250;-77
2022/02/06 06:32:10;;;;;;;9.85;8.85;;;;;;;;;;822981;72;26261;-79
2022/02/06 06:33:14;;;;;;;10.40;8.70;;;;;;;;;;822969;72;26257;-78
2022/02/06 06:34:19;;;;;;;12.73;9.60;;;;;;;;;;817504;72;26318;-80
2022/02/06 06:35:21;;;;;;;9.88;8.88;;;;;;;;;;808498;72;26779;-78
2022/02/06 06:36:24;;;;;;;14.13;10.53;;;;;;;;;;811974;72;26338;-78
2022/02/06 06:37:27;;;;;;;12.18;9.18;;;;;;;;;;821986;72;26790;-78
2022/02/06 06:38:32;;;;;;;16.10;9.93;;;;;;;;;;822022;72;26361;-79
2022/02/06 06:39:41;;;;;;;10.72;9.28;;;;;;;;;;822072;72;26330;-78
2022/02/06 06:40:41;;;;;;;13.85;10.85;;;;;;;;;;815137;72;26270;-77
2022/02/06 06:41:44;;;;;;;10.78;9.40;;;;;;;;;;809664;73;26312;-78
2022/02/06 06:42:46;;;;;;;10.48;9.38;;;;;;;;;;809344;73;26828;-79
2022/02/06 06:43:49;;;;;;;13.48;8.90;;;;;;;;;;809567;73;26354;-76
2022/02/06 06:44:52;;;;;;;10.68;9.05;;;;;;;;;;815756;70;26288;-78
2022/02/06 06:45:55;;;;;;;10.72;8.30;;;;;;;;;;835158;70;26307;-78
2022/02/06 06:46:57;;;;;;;9.58;8.18;;;;;;;;;;826226;70;26284;-79
2022/02/06 06:48:00;;;;;;;10.75;8.90;;;;;;;;;;815496;70;26263;-79
2022/02/06 06:49:03;;;;;;;11.35;8.03;;;;;;;;;;818074;70;26721;-80
2022/02/06 06:50:06;;;;;;;9.00;8.10;;;;;;;;;;817788;70;26303;-80
2022/02/06 06:51:10;;;;;;;9.63;7.67;;;;;;;;;;818766;70;26268;-76
2022/02/06 06:52:12;;;;;;;9.70;7.92;;;;;;;;;;839554;70;26394;-79
2022/02/06 06:53:15;;;;;;;7.60;6.90;;;;;;;;;;837431;70;26734;-77
2022/02/06 06:54:22;;;;;;;8.60;7.53;;;;;;;;;;839531;70;26249;-79
2022/02/06 06:55:23;;;;;;;8.95;6.85;;;;;;;;;;838843;70;26243;-77
2022/02/06 06:56:41;;;;;;;7.85;7.08;;;;;;;;;;839524;70;26277;-78
2022/02/06 06:57:39;;;;;;;7.25;6.55;;;;;;;;;;832277;70;26855;-78
2022/02/06 06:58:42;;;;;;;12.00;7.28;;;;;;;;;;816675;70;26319;-79
2022/02/06 07:00:57;;;;;;;7.72;6.70;;;;;;;;;;839577;70;26783;-78
2022/02/06 07:02:19;;;;;;;9.18;7.03;;;;;;;;;;828942;70;26284;-80
2022/02/06 07:03:08;;;;;;;9.10;7.95;;;;;;;;;;825517;70;26718;-80
2022/02/06 07:04:11;;;;;;;10.23;7.30;;;;;;;;;;826367;70;26318;-84
2022/02/06 07:05:15;;;;;;;8.65;7.25;;;;;;;;;;812451;70;26323;-86
2022/02/06 07:06:18;;;;;;;10.63;7.45;;;;;;;;;;817992;70;26341;-85
2022/02/06 07:07:20;;;;;;;9.28;7.70;;;;;;;;;;832396;70;26249;-88
2022/02/06 07:08:23;;;;;;;9.10;8.13;;;;;;;;;;840042;70;26250;-85
2022/02/06 07:09:29;;;;;;;10.05;8.43;;;;;;;;;;840190;70;26753;-86
2022/02/06 07:10:33;;;;;;;9.20;7.90;;;;;;;;;;831324;70;26245;-85
2022/02/06 07:11:38;;;;;;;12.30;9.25;;;;;;;;;;835972;70;26725;-87
2022/02/06 07:12:41;;;;;;;11.93;10.45;;;;;;;;;;840140;70;26737;-87
2022/02/06 07:13:44;;;;;;;13.75;10.65;;;;;;;;;;840067;70;26667;-86
2022/02/06 07:14:48;;;;;;;13.62;11.40;;;;;;;;;;822103;70;26372;-85
2022/02/06 07:15:52;;;;;;;15.18;12.25;;;;;;;;;;836765;70;26249;-84
2022/02/06 07:16:55;;;;;;;14.45;12.35;;;;;;;;;;840534;70;26404;-84
2022/02/06 07:17:58;;;;;;;14.15;12.35;;;;;;;;;;840321;70;26265;-85
2022/02/06 07:19:01;;;;;;;17.70;12.82;;;;;;;;;;820755;70;26251;-84
2022/02/06 07:20:04;;;;;;;17.85;12.25;;;;;;;;;;839061;70;26272;-85
2022/02/06 07:21:08;;;;;;;14.53;11.93;;;;;;;;;;840164;70;26258;-85
2022/02/06 07:22:14;;;;;;;13.88;12.43;;;;;;;;;;840296;70;26253;-83
2022/02/06 07:23:16;;;;;;;13.30;11.78;;;;;;;;;;840165;70;26202;-85
2022/02/06 07:24:21;;;;;;;14.95;12.88;;;;;;;;;;840231;70;26276;-88
2022/02/06 07:25:23;;;;;;;15.48;12.60;;;;;;;;;;840057;70;26622;-87
2022/02/06 07:26:26;;;;;;;16.40;13.62;;;;;;;;;;824906;70;26291;-84
2022/02/06 07:27:32;;;;;;;15.25;12.45;;;;;;;;;;824823;70;26811;-86
2022/02/06 07:28:33;;;;;;;18.95;14.10;;;;;;;;;;833296;70;26230;-87
2022/02/06 07:29:36;;;;;;;15.15;12.68;;;;;;;;;;831366;70;26264;-85
2022/02/06 07:30:38;;;;;;;14.47;12.53;;;;;;;;;;833466;70;26237;-87
2022/02/06 07:31:42;;;;;;;13.90;12.13;;;;;;;;;;825101;70;26363;-87
2022/02/06 07:32:46;;;;;;;14.93;12.50;;;;;;;;;;828972;70;26197;-90
2022/02/06 07:33:48;;;;;;;14.23;11.85;;;;;;;;;;829335;70;26337;-89
2022/02/06 07:34:51;;;;;;;14.13;11.78;;;;;;;;;;824276;70;26522;-89
2022/02/06 07:35:54;;;;;;;14.20;12.13;;;;;;;;;;833759;70;26253;-87
2022/02/06 07:36:57;;;;;;;13.85;11.88;;;;;;;;;;829072;70;26244;-84
2022/02/06 07:38:00;;;;;;;14.35;12.05;;;;;;;;;;833798;70;26245;-87
2022/02/06 07:39:04;;;;;;;15.60;12.85;;;;;;;;;;839050;70;26710;-88
2022/02/06 07:40:10;;;;;;;14.20;11.60;;;;;;;;;;837334;70;26198;-86
2022/02/06 07:41:13;;;;;;;12.15;10.95;;;;;;;;;;828310;70;26346;-90
2022/02/06 07:42:16;;;;;;;14.23;11.65;;;;;;;;;;836070;70;26253;-86
2022/02/06 07:43:20;;;;;;;19.98;16.30;;;;;;;;;;818975;70;26252;-88
2022/02/06 07:44:24;;;;;;;19.67;15.32;;;;;;;;;;817397;70;26289;-86
2022/02/06 07:45:27;;;;;;;16.45;13.40;;;;;;;;;;822826;70;26329;-88
2022/02/06 07:46:37;;;;;;;13.08;11.73;;;;;;;;;;834240;70;26270;-87
2022/02/06 07:47:34;;;;;;;12.35;11.05;;;;;;;;;;838046;70;26225;-87
2022/02/06 07:48:39;;;;;;;12.95;10.43;;;;;;;;;;824122;70;26326;-87
2022/02/06 07:49:45;;;;;;;12.35;10.72;;;;;;;;;;824368;70;26337;-87
2022/02/06 07:50:47;;;;;;;12.90;9.80;;;;;;;;;;823891;70;26284;-85
2022/02/06 07:51:51;;;;;;;11.20;9.55;;;;;;;;;;810128;73;26796;-86
2022/02/06 07:52:53;;;;;;;10.70;9.40;;;;;;;;;;810806;72;26262;-85
2022/02/06 07:53:56;;;;;;;9.70;8.75;;;;;;;;;;823603;70;26205;-85
2022/02/06 07:55:00;;;;;;;9.78;8.70;;;;;;;;;;823975;70;26260;-87
2022/02/06 07:56:03;;;;;;;10.20;9.18;;;;;;;;;;839074;70;26262;-86
2022/02/06 07:57:06;;;;;;;9.40;8.50;;;;;;;;;;839163;70;26277;-86
2022/02/06 07:58:10;;;;;;;10.38;9.38;;;;;;;;;;838847;70;26927;-86
2022/02/06 07:59:13;;;;;;;10.07;9.17;;;;;;;;;;837697;70;26306;-87
2022/02/06 08:00:17;;;;;;;11.00;9.90;;;;;;;;;;825838;70;26483;-86
2022/02/06 08:01:22;;;;;;;10.98;9.88;;;;;;;;;;836499;70;26204;-90
2022/02/06 08:02:26;;;;;;;14.67;10.53;;;;;;;;;;839442;70;26245;-84
2022/02/06 08:03:29;;;;;;;13.10;11.28;;;;;;;;;;838922;70;26746;-85
2022/02/06 08:04:35;;;;;;;12.23;10.93;;;;;;;;;;836137;70;26277;-86
2022/02/06 08:05:38;;;;;;;13.80;11.57;;;;;;;;;;790218;73;26627;-87
2022/02/06 08:06:41;;;;;;;13.15;11.83;;;;;;;;;;790650;73;26831;-86
2022/02/06 08:07:46;;;;;;;13.57;12.10;;;;;;;;;;799418;74;26244;-85
2022/02/06 08:08:48;;;;;;;13.23;11.83;;;;;;;;;;799819;73;26872;-84
2022/02/06 08:11:01;;;;;;;15.90;13.30;;;;;;;;;;794458;74;26453;-86
2022/02/06 08:12:04;;;;;;;13.83;11.90;;;;;;;;;;795096;74;26457;-84
2022/02/06 08:13:26;;;;;;;13.50;11.60;;;;;;;;;;798817;72;26496;-84
2022/02/06 08:15:46;;;;;;;13.47;11.30;;;;;;;;;;817339;70;26387;-85
2022/02/06 08:16:49;;;;;;;14.40;11.70;;;;;;;;;;816955;70;26523;-85
2022/02/06 08:17:54;;;;;;;13.73;11.73;;;;;;;;;;804770;73;26531;-86
2022/02/06 08:19:00;;;;;;;13.37;11.80;;;;;;;;;;808897;73;26348;-86
2022/02/06 08:20:04;;;;;;;13.20;11.80;;;;;;;;;;809035;70;26543;-86
2022/02/06 08:21:07;;;;;;;17.07;11.57;;;;;;;;;;810444;73;26576;-88
2022/02/06 08:22:11;;;;;;;13.20;11.97;;;;;;;;;;806054;72;26543;-86
2022/02/06 08:23:15;;;;;;;12.23;10.80;;;;;;;;;;800166;73;26412;-87
2022/02/06 08:24:18;;;;;;;12.60;11.00;;;;;;;;;;799655;73;26510;-86
2022/02/06 08:25:21;;;;;;;11.87;10.60;;;;;;;;;;799554;73;26438;-87
2022/02/06 08:26:25;;;;;;;11.43;10.43;;;;;;;;;;799389;73;26548;-89
2022/02/06 08:27:29;;;;;;;12.93;11.57;;;;;;;;;;799049;74;26915;-89
2022/02/06 08:28:37;;;;;;;12.10;10.90;;;;;;;;;;798813;73;26519;-89
2022/02/06 08:29:44;;;;;;;12.57;11.00;;;;;;;;;;798807;73;26961;-88
2022/02/06 08:30:46;;;;;;;11.33;10.23;;;;;;;;;;798292;73;26478;-84
2022/02/06 08:31:48;;;;;;;11.60;10.10;;;;;;;;;;798283;73;26354;-85
2022/02/06 08:32:51;;;;;;;9.80;8.83;;;;;;;;;;796560;74;26936;-83
2022/02/06 08:33:54;;;;;;;10.20;8.53;;;;;;;;;;799491;73;26486;-82
2022/02/06 08:34:57;;;;;;;9.07;8.17;;;;;;;;;;801858;73;26442;-85
2022/02/06 08:36:01;;;;;;;8.10;7.30;;;;;;;;;;791830;73;26571;-85
2022/02/06 08:37:24;;;;;;;7.77;7.07;;;;;;;;;;791814;73;26591;-84
2022/02/06 08:38:27;;;;;;;7.63;6.93;;;;;;;;;;791799;73;26899;-85
2022/02/06 08:39:33;;;;;;;7.30;6.63;;;;;;;;;;791952;73;26306;-84
2022/02/06 08:40:36;;;;;;;7.83;7.13;;;;;;;;;;791839;73;26529;-85
2022/02/06 08:41:38;;;;;;;7.67;6.97;;;;;;;;;;792335;73;26627;-83
2022/02/06 08:42:41;;;;;;;8.57;7.67;;;;;;;;;;794013;73;26415;-85
2022/02/06 08:43:44;;;;;;;7.80;6.50;;;;;;;;;;807692;69;26441;-84
2022/02/06 08:44:52;;;;;;;6.63;6.00;;;;;;;;;;807304;73;26456;-85
2022/02/06 08:45:55;;;;;;;6.17;5.57;;;;;;;;;;807759;72;26539;-86
2022/02/06 08:46:58;;;;;;;5.30;4.80;;;;;;;;;;807486;69;26577;-85
2022/02/06 08:48:01;;;;;;;6.27;5.37;;;;;;;;;;807645;72;26524;-84
2022/02/06 08:49:04;;;;;;;7.97;6.13;;;;;;;;;;807404;73;26514;-85
2022/02/06 08:50:07;;;;;;;7.93;7.13;;;;;;;;;;793395;73;26383;-86
2022/02/06 08:51:10;;;;;;;8.20;7.40;;;;;;;;;;812041;72;26565;-85
2022/02/06 08:52:14;;;;;;;7.03;6.43;;;;;;;;;;835752;70;26455;-85
2022/02/06 08:53:17;;;;;;;6.37;5.77;;;;;;;;;;816257;72;26983;-83
2022/02/06 08:54:28;;;;;;;5.80;5.30;;;;;;;;;;811389;72;26555;-85
2022/02/06 08:55:30;;;;;;;5.70;4.93;;;;;;;;;;811014;72;26218;-85
2022/02/06 08:56:38;;;;;;;6.30;5.70;;;;;;;;;;816852;70;26440;-84
2022/02/06 08:57:43;;;;;;;5.50;5.00;;;;;;;;;;817319;70;26443;-84
2022/02/06 08:58:41;;;;;;;7.13;5.97;;;;;;;;;;817530;70;26588;-84
2022/02/06 08:59:45;;;;;;;6.53;5.83;;;;;;;;;;819667;70;26568;-83
2022/02/06 09:00:47;;;;;;;7.23;5.33;;;;;;;;;;818552;72;26419;-84
2022/02/06 09:01:52;;;;;;;5.67;5.17;;;;;;;;;;812232;70;26547;-83
2022/02/06 09:02:54;;;;;;;5.90;5.40;;;;;;;;;;811856;72;26597;-85
2022/02/06 09:03:57;;;;;;;7.40;6.30;;;;;;;;;;812184;70;26411;-85
2022/02/06 09:05:02;;;;;;;7.00;6.30;;;;;;;;;;818250;70;26393;-86
2022/02/06 09:06:06;;;;;;;8.83;7.10;;;;;;;;;;811483;72;26349;-85
2022/02/06 09:07:09;;;;;;;9.07;7.90;;;;;;;;;;811130;70;26382;-85
2022/02/06 09:08:12;;;;;;;8.77;7.97;;;;;;;;;;824742;70;26253;-85
2022/02/06 09:09:16;;;;;;;8.67;7.87;;;;;;;;;;825025;70;26368;-86
2022/02/06 09:10:20;;;;;;;10.07;8.00;;;;;;;;;;838923;70;26548;-86
2022/02/06 09:11:26;;;;;;;9.27;8.27;;;;;;;;;;835605;70;26461;-86
2022/02/06 09:12:30;;;;;;;8.23;7.43;;;;;;;;;;811189;70;26790;-85
2022/02/06 09:13:33;;;;;;;9.83;7.40;;;;;;;;;;817119;70;26519;-87
2022/02/06 09:14:37;;;;;;;8.20;7.40;;;;;;;;;;820850;70;26505;-85
2022/02/06 09:15:40;;;;;;;8.93;8.10;;;;;;;;;;839385;70;26527;-86
2022/02/06 09:16:42;;;;;;;9.07;8.20;;;;;;;;;;839180;70;26452;-85
2022/02/06 09:17:45;;;;;;;8.30;7.50;;;;;;;;;;839144;70;26366;-85
2022/02/06 09:18:50;;;;;;;10.30;8.33;;;;;;;;;;839191;70;26447;-85
2022/02/06 09:19:53;;;;;;;10.03;8.23;;;;;;;;;;834001;70;26495;-84
2022/02/06 09:20:57;;;;;;;9.33;8.43;;;;;;;;;;818193;72;26448;-84
2022/02/06 09:22:00;;;;;;;8.53;7.83;;;;;;;;;;824723;70;26396;-82
2022/02/06 09:23:04;;;;;;;8.90;8.00;;;;;;;;;;840672;70;27054;-83
2022/02/06 09:24:07;;;;;;;9.07;8.07;;;;;;;;;;840110;70;27065;-85
2022/02/06 09:25:11;;;;;;;9.20;8.17;;;;;;;;;;840032;70;26494;-87
2022/02/06 09:26:14;;;;;;;9.13;8.23;;;;;;;;;;840246;70;26761;-85
2022/02/06 09:27:17;;;;;;;8.40;7.70;;;;;;;;;;839850;70;26901;-83
2022/02/06 09:28:20;;;;;;;7.10;6.50;;;;;;;;;;840335;70;26752;-85
2022/02/06 09:29:23;;;;;;;9.43;8.00;;;;;;;;;;840452;70;26353;-85
2022/02/06 09:30:28;;;;;;;9.33;8.33;;;;;;;;;;840115;70;26502;-87
2022/02/06 09:31:30;;;;;;;9.33;8.23;;;;;;;;;;832009;70;26485;-86
2022/02/06 09:35:42;;;;;;;7.77;6.97;;;;;;;;;;810858;70;26334;-85
2022/02/06 09:36:46;;;;;;;8.30;7.50;;;;;;;;;;818039;70;26428;-86
2022/02/06 09:37:52;;;;;;;8.20;7.40;;;;;;;;;;822589;72;26633;-85
2022/02/06 09:38:56;;;;;;;7.97;7.17;;;;;;;;;;822945;72;26453;-86
2022/02/06 09:39:59;;;;;;;7.47;6.87;;;;;;;;;;822860;72;26679;-87
2022/02/06 09:41:02;;;;;;;7.47;6.77;;;;;;;;;;821874;72;26344;-87
2022/02/06 09:42:06;;;;;;;7.90;7.00;;;;;;;;;;823252;72;26468;-88
2022/02/06 09:43:10;;;;;;;7.63;6.93;;;;;;;;;;816787;70;26506;-89
2022/02/06 09:44:15;;;;;;;7.30;6.60;;;;;;;;;;812799;70;26409;-90
2022/02/06 09:45:21;;;;;;;7.70;7.00;;;;;;;;;;809235;70;26550;-88
2022/02/06 09:46:26;;;;;;;8.97;7.30;;;;;;;;;;819585;70;26522;-87
2022/02/06 09:47:30;;;;;;;8.10;6.70;;;;;;;;;;831335;70;26554;-88
2022/02/06 09:48:34;;;;;;;7.20;6.50;;;;;;;;;;821227;70;26497;-88
2022/02/06 09:49:38;;;;;;;7.77;6.93;;;;;;;;;;838683;70;26545;-91
2022/02/06 09:50:45;;;;;;;7.63;6.83;;;;;;;;;;818647;72;26544;-90
2022/02/06 09:51:49;;;;;;;7.77;7.07;;;;;;;;;;823669;70;26947;-90
2022/02/06 09:52:53;;;;;;;8.10;7.13;;;;;;;;;;835065;70;26357;-90
2022/02/06 09:53:59;;;;;;;8.20;7.03;;;;;;;;;;824670;70;26253;-89
2022/02/06 09:55:09;;;;;;;12.00;9.10;;;;;;;;;;840803;70;26320;-89
2022/02/06 09:56:12;;;;;;;10.23;8.03;;;;;;;;;;840583;70;26454;-88
2022/02/06 09:57:24;;;;;;;11.60;8.87;;;;;;;;;;830762;70;26310;-88
2022/02/06 09:59:37;;;;;;;14.37;9.20;;;;;;;;;;819608;70;26476;-88
2022/02/06 10:00:40;;;;;;;10.90;8.47;;;;;;;;;;819055;70;26455;-88
2022/02/06 10:01:55;;;;;;;9.40;7.47;;;;;;;;;;837343;70;26463;-88
2022/02/06 10:03:02;;;;;;;14.40;10.10;;;;;;;;;;837946;70;26526;-88
2022/02/06 10:04:08;;;;;;;17.53;11.90;;;;;;;;;;839399;69;26434;-89
2022/02/06 10:05:12;;;;;;;17.33;11.80;;;;;;;;;;819111;70;26977;-87
2022/02/06 10:06:19;;;;;;;17.43;12.17;;;;;;;;;;819524;70;26737;-87
2022/02/06 10:07:33;;;;;;;17.40;11.93;;;;;;;;;;822004;70;26427;-86
2022/02/06 10:08:39;;;;;;;16.60;11.17;;;;;;;;;;820418;70;26529;-88
2022/02/06 10:09:51;;;;;;;10.23;8.90;;;;;;;;;;832112;70;26540;-88
2022/02/06 10:11:04;;;;;;;9.17;7.10;;;;;;;;;;834891;70;27023;-86
2022/02/06 10:12:07;;;;;;;9.47;7.47;;;;;;;;;;834636;70;26808;-87
2022/02/06 10:13:10;;;;;;;14.63;9.03;;;;;;;;;;840417;70;26410;-88
2022/02/06 10:14:14;;;;;;;13.50;9.83;;;;;;;;;;839467;70;26602;-88
2022/02/06 10:15:19;;;;;;;14.00;9.07;;;;;;;;;;840009;70;26427;-84
2022/02/06 10:16:22;;;;;;;11.37;9.43;;;;;;;;;;840030;70;26494;-86
2022/02/06 10:17:25;;;;;;;13.77;9.87;;;;;;;;;;839962;70;26307;-84
2022/02/06 10:18:30;;;;;;;12.33;9.30;;;;;;;;;;841502;70;26492;-86
2022/02/06 10:19:38;;;;;;;10.00;8.13;;;;;;;;;;840160;70;26603;-89
2022/02/06 10:20:44;;;;;;;9.23;7.53;;;;;;;;;;831592;69;26441;-87
2022/02/06 10:21:48;;;;;;;13.23;8.50;;;;;;;;;;841302;70;26529;-87
2022/02/06 10:23:10;;;;;;;11.47;8.47;;;;;;;;;;840987;70;26435;-85
2022/02/06 10:24:18;;;;;;;11.10;9.93;;;;;;;;;;794434;72;26478;-83
2022/02/06 10:25:18;;;;;;;13.53;10.47;;;;;;;;;;821606;70;26524;-88
2022/02/06 10:26:25;;;;;;;10.20;8.67;;;;;;;;;;822536;70;26421;-86
2022/02/06 10:27:31;;;;;;;8.37;7.50;;;;;;;;;;819491;70;26557;-87
2022/02/06 10:29:30;;;;;;;7.33;6.60;;;;;;;;;;821529;70;26332;-88
2022/02/06 10:30:43;;;;;;;9.50;6.93;;;;;;;;;;840880;70;26468;-88
2022/02/06 10:32:08;;;;;;;6.53;5.93;;;;;;;;;;823166;72;26465;-86
2022/02/06 10:33:15;;;;;;;6.90;6.20;;;;;;;;;;822777;70;26530;-87
2022/02/06 10:34:23;;;;;;;6.23;5.63;;;;;;;;;;841710;70;26590;-87
2022/02/06 13:36:06;;;;;;;11.60;10.10;;;;;;;;;;778425;76;26358;-84
2022/02/06 13:37:13;;;;;;;14.85;11.28;;;;;;;;;;778534;76;26234;-84
2022/02/06 13:38:17;;;;;;;11.78;10.08;;;;;;;;;;778020;74;26380;-84
2022/02/06 13:39:25;;;;;;;14.87;11.78;;;;;;;;;;778515;74;26370;-86
2022/02/06 13:40:27;;;;;;;15.35;10.85;;;;;;;;;;774162;76;26284;-83
2022/02/06 13:41:31;;;;;;;13.75;10.98;;;;;;;;;;771408;77;26295;-83
2022/02/06 13:42:33;;;;;;;13.50;11.33;;;;;;;;;;771181;75;26227;-84
2022/02/06 13:43:39;;;;;;;15.63;11.40;;;;;;;;;;771783;77;26245;-84
2022/02/06 13:44:42;;;;;;;12.07;10.58;;;;;;;;;;771733;77;26285;-82
2022/02/06 13:45:45;;;;;;;16.42;10.58;;;;;;;;;;772343;76;26251;-84
2022/02/06 13:46:48;;;;;;;12.37;11.00;;;;;;;;;;771969;76;26218;-83
2022/02/06 13:47:51;;;;;;;13.50;10.78;;;;;;;;;;771907;76;26269;-82
2022/02/06 13:48:55;;;;;;;14.93;12.37;;;;;;;;;;772346;76;26309;-83
2022/02/06 13:50:01;;;;;;;16.10;12.10;;;;;;;;;;773590;75;26269;-85
2022/02/06 13:51:04;;;;;;;12.82;11.03;;;;;;;;;;772117;76;26230;-81
2022/02/06 13:52:07;;;;;;;12.30;11.00;;;;;;;;;;771895;76;26210;-83
2022/02/06 13:53:15;;;;;;;14.03;11.08;;;;;;;;;;771553;76;26280;-82
2022/02/06 13:54:19;;;;;;;13.43;11.08;;;;;;;;;;769922;77;26484;-82
2022/02/06 13:55:25;;;;;;;13.40;11.10;;;;;;;;;;770162;77;26691;-84
2022/02/06 13:56:29;;;;;;;16.70;10.72;;;;;;;;;;771148;76;26309;-81
2022/02/06 13:57:35;;;;;;;11.80;9.90;;;;;;;;;;770543;77;26541;-82
2022/02/06 13:58:38;;;;;;;12.35;11.15;;;;;;;;;;770283;77;26316;-81
2022/02/06 13:59:47;;;;;;;12.20;10.00;;;;;;;;;;770286;77;26387;-81
2022/02/06 14:00:53;;;;;;;14.25;10.28;;;;;;;;;;769035;77;26310;-82
2022/02/06 14:01:56;;;;;;;14.75;10.65;;;;;;;;;;770113;76;26270;-83
2022/02/06 14:02:59;;;;;;;14.20;10.40;;;;;;;;;;770105;77;26294;-83